createdAt,value
2018-12-17T00:00:00.781Z,23.4
2018-12-17T00:05:00.975Z,23.1
2018-12-17T00:10:00.783Z,23.5
2018-12-17T00:15:00.847Z,22.9
2018-12-17T00:20:00.786Z,23.2
2018-12-17T00:25:00.781Z,22.1
2018-12-17T00:30:01.471Z,22.4
2018-12-17T00:40:00.940Z,21.2
2018-12-17T00:45:00.798Z,21.4
2018-12-17T00:50:00.794Z,20.2
2018-12-17T00:55:00.927Z,19.9
2018-12-17T01:00:01.510Z,19.7
2018-12-17T01:05:02.220Z,20.0
2018-12-17T01:10:00.797Z,20.2
2018-12-17T01:15:00.859Z,21.1
2018-12-17T01:20:00.766Z,21.0
2018-12-17T01:25:00.955Z,21.4
2018-12-17T01:30:00.863Z,21.6
2018-12-17T01:35:00.929Z,21.0
2018-12-17T01:40:00.805Z,21.9
2018-12-17T01:45:00.861Z,21.5
2018-12-17T01:50:00.794Z,21.2
2018-12-17T01:55:01.266Z,21.5
2018-12-17T02:00:02.280Z,22.4
2018-12-17T02:05:00.902Z,21.5
2018-12-17T02:10:00.843Z,22.4
2018-12-17T02:15:00.905Z,22.0
2018-12-17T02:20:00.836Z,22.3
2018-12-17T02:25:01.475Z,21.8
2018-12-17T02:30:00.843Z,22.4
2018-12-17T02:35:00.898Z,21.2
2018-12-17T02:40:00.854Z,21.0
2018-12-17T02:45:00.908Z,20.1
2018-12-17T02:50:00.858Z,20.1
2018-12-17T02:55:01.862Z,20.2
2018-12-17T03:00:01.409Z,21.3
2018-12-17T03:05:00.953Z,21.6
2018-12-17T03:10:00.827Z,21.9
2018-12-17T03:15:00.897Z,21.6
2018-12-17T03:20:00.847Z,21.2
2018-12-17T03:25:00.986Z,20.2
2018-12-17T03:30:00.876Z,20.2
2018-12-17T03:35:00.956Z,20.7
2018-12-17T03:40:00.828Z,21.3
2018-12-17T03:45:01.958Z,21.1
2018-12-17T03:50:00.865Z,21.2
2018-12-17T03:55:01.102Z,20.5
2018-12-17T04:00:00.868Z,19.3
2018-12-17T04:05:00.953Z,18.2
2018-12-17T04:10:00.839Z,18.4
2018-12-17T04:15:00.906Z,18.0
2018-12-17T04:20:01.166Z,18.4
2018-12-17T04:25:00.997Z,18.6
2018-12-17T04:30:00.871Z,19.4
2018-12-17T04:35:00.847Z,19.0
2018-12-17T04:40:00.871Z,19.5
2018-12-17T04:45:00.948Z,20.1
2018-12-17T04:50:01.085Z,21.0
2018-12-17T04:55:01.407Z,20.6
2018-12-17T05:00:00.915Z,21.6
2018-12-17T05:05:00.912Z,22.3
2018-12-17T05:10:00.880Z,23.0
2018-12-17T05:15:00.959Z,22.8
2018-12-17T05:20:01.013Z,23.3
2018-12-17T05:25:00.944Z,22.5
2018-12-17T05:30:00.882Z,22.5
2018-12-17T05:35:01.003Z,21.3
2018-12-17T05:40:01.405Z,21.3
2018-12-17T05:45:00.949Z,21.3
2018-12-17T05:50:00.895Z,21.6
2018-12-17T05:55:00.953Z,21.5
2018-12-17T06:00:00.887Z,20.9
2018-12-17T06:05:00.975Z,21.2
2018-12-17T06:10:01.128Z,20.9
2018-12-17T06:15:00.890Z,21.4
2018-12-17T06:25:00.965Z,22.5
2018-12-17T06:30:05.869Z,22.6
2018-12-17T06:35:00.928Z,22.9
2018-12-17T06:40:00.870Z,23.0
2018-12-17T06:45:00.862Z,23.2
2018-12-17T06:50:00.871Z,22.6
2018-12-17T06:55:01.262Z,23.0
2018-12-17T07:00:02.355Z,23.4
2018-12-17T07:05:00.940Z,22.8
2018-12-17T07:10:00.862Z,22.0
2018-12-17T07:15:01.000Z,22.7
2018-12-17T07:20:00.881Z,22.3
2018-12-17T07:25:01.299Z,21.9
2018-12-17T07:30:00.880Z,22.0
2018-12-17T07:35:00.946Z,23.5
2018-12-17T07:40:01.284Z,23.3
2018-12-17T07:45:01.015Z,22.9
2018-12-17T07:50:00.877Z,23.4
2018-12-17T07:55:02.457Z,23.0
2018-12-17T08:00:00.898Z,22.1
2018-12-17T08:05:00.956Z,22.4
2018-12-17T08:10:00.908Z,23.0
2018-12-17T08:15:01.023Z,22.5
2018-12-17T08:20:00.899Z,23.3
2018-12-17T08:25:02.607Z,22.8
2018-12-17T08:30:04.500Z,23.4
2018-12-17T08:35:00.967Z,23.3
2018-12-17T08:40:00.899Z,23.8
2018-12-17T08:45:01.242Z,24.5
2018-12-17T08:50:02.416Z,26.0
2018-12-17T08:55:00.918Z,25.1
2018-12-17T09:00:00.913Z,25.3
2018-12-17T09:05:00.975Z,25.6
2018-12-17T09:10:00.913Z,26.2
2018-12-17T09:15:01.359Z,25.7
2018-12-17T09:20:01.532Z,26.4
2018-12-17T09:25:01.009Z,26.7
2018-12-17T09:30:00.950Z,26.6
2018-12-17T09:35:01.012Z,26.1
2018-12-17T09:40:01.028Z,26.0
2018-12-17T09:45:01.368Z,25.5
2018-12-17T09:50:00.924Z,25.3
2018-12-17T09:55:01.225Z,25.0
2018-12-17T10:00:00.992Z,25.2
2018-12-17T10:05:00.996Z,25.4
2018-12-17T10:10:00.928Z,27.0
2018-12-17T10:15:00.993Z,27.1
2018-12-17T10:20:00.932Z,27.8
2018-12-17T10:25:01.049Z,27.6
2018-12-17T10:30:00.949Z,27.9
2018-12-17T10:35:01.007Z,27.0
2018-12-17T10:40:00.950Z,27.9
2018-12-17T10:45:00.940Z,28.7
2018-12-17T10:50:00.962Z,28.8
2018-12-17T10:55:00.942Z,29.4
2018-12-17T11:00:00.947Z,29.7
2018-12-17T11:05:01.028Z,29.0
2018-12-17T11:10:00.946Z,27.6
2018-12-17T11:15:00.943Z,27.1
2018-12-17T11:20:01.173Z,26.4
2018-12-17T11:25:01.082Z,25.8
2018-12-17T11:30:00.958Z,25.1
2018-12-17T11:35:01.023Z,24.9
2018-12-17T11:40:00.958Z,25.6
2018-12-17T11:45:00.955Z,26.0
2018-12-17T11:50:00.954Z,26.1
2018-12-17T11:55:01.088Z,27.9
2018-12-17T12:00:00.964Z,28.6
2018-12-17T12:05:01.020Z,27.8
2018-12-17T12:10:01.329Z,27.7
2018-12-17T12:15:02.451Z,27.5
2018-12-17T12:20:01.007Z,26.6
2018-12-17T12:25:01.114Z,26.1
2018-12-17T12:30:00.973Z,27.0
2018-12-17T12:35:01.508Z,26.6
2018-12-17T12:40:01.327Z,26.4
2018-12-17T12:45:00.968Z,26.8
2018-12-17T12:50:01.089Z,27.0
2018-12-17T12:55:00.980Z,25.8
2018-12-17T13:00:00.984Z,25.9
2018-12-17T13:05:01.040Z,25.7
2018-12-17T13:10:00.979Z,24.4
2018-12-17T13:15:01.063Z,23.9
2018-12-17T13:20:00.983Z,23.9
2018-12-17T13:25:01.108Z,23.8
2018-12-17T13:30:01.234Z,24.0
2018-12-17T13:35:01.049Z,24.3
2018-12-17T13:40:01.284Z,24.5
2018-12-17T13:45:01.078Z,25.1
2018-12-17T13:50:00.994Z,25.1
2018-12-17T13:55:01.955Z,24.5
2018-12-17T14:00:00.998Z,22.8
2018-12-17T14:05:01.059Z,22.4
2018-12-17T14:10:01.000Z,21.6
2018-12-17T14:15:01.055Z,21.1
2018-12-17T14:20:00.994Z,21.6
2018-12-17T14:25:01.144Z,23.0
2018-12-17T14:30:03.029Z,22.9
2018-12-17T14:35:01.129Z,24.9
2018-12-17T14:40:01.008Z,24.6
2018-12-17T14:45:01.141Z,24.1
2018-12-17T14:50:01.208Z,23.9
2018-12-17T14:55:01.071Z,23.4
2018-12-17T15:00:01.010Z,21.4
2018-12-17T15:05:01.110Z,21.1
2018-12-17T15:10:01.008Z,21.6
2018-12-17T15:15:01.079Z,21.2
2018-12-17T15:20:01.019Z,21.9
2018-12-17T15:25:01.219Z,22.1
2018-12-17T15:30:01.022Z,22.2
2018-12-17T15:35:01.163Z,22.2
2018-12-17T15:40:01.021Z,22.6
2018-12-17T15:45:01.424Z,23.0
2018-12-17T15:50:01.025Z,23.6
2018-12-17T15:55:02.859Z,22.9
2018-12-17T16:00:01.097Z,22.5
2018-12-17T16:10:01.101Z,21.8
2018-12-17T16:15:01.092Z,21.5
2018-12-17T16:20:01.031Z,21.8
2018-12-17T16:25:01.089Z,21.2
2018-12-17T16:30:01.057Z,21.2
2018-12-17T16:35:01.037Z,20.7
2018-12-17T16:40:01.025Z,19.3
2018-12-17T16:45:01.440Z,19.3
2018-12-17T16:50:01.302Z,20.0
2018-12-17T16:55:01.037Z,19.9
2018-12-17T17:00:01.034Z,19.6
2018-12-17T17:05:01.169Z,20.0
2018-12-17T17:10:01.072Z,19.8
2018-12-17T17:15:01.205Z,18.6
2018-12-17T17:20:01.050Z,18.2
2018-12-17T17:25:01.112Z,18.2
2018-12-17T17:30:01.089Z,18.8
2018-12-17T17:35:01.490Z,19.7
2018-12-17T17:40:01.052Z,20.9
2018-12-17T17:45:01.116Z,21.2
2018-12-17T17:50:01.050Z,21.8
2018-12-17T17:55:01.117Z,21.6
2018-12-17T18:00:01.061Z,21.1
2018-12-17T18:05:01.052Z,21.2
2018-12-17T18:10:01.058Z,20.6
2018-12-17T18:15:01.190Z,21.2
2018-12-17T18:20:01.064Z,20.6
2018-12-17T18:25:01.123Z,20.5
2018-12-17T18:30:01.132Z,20.5
2018-12-17T18:35:01.218Z,21.5
2018-12-17T18:40:01.101Z,20.7
2018-12-17T18:45:01.200Z,21.6
2018-12-17T18:50:01.109Z,23.1
2018-12-17T18:55:01.137Z,23.3
2018-12-17T19:00:01.087Z,23.6
2018-12-17T19:05:01.536Z,24.1
2018-12-17T19:10:01.079Z,23.8
2018-12-17T19:15:01.203Z,22.3
2018-12-17T19:20:01.077Z,21.3
2018-12-17T19:25:01.152Z,20.8
2018-12-17T19:30:01.496Z,21.2
2018-12-17T19:35:01.530Z,21.2
2018-12-17T19:40:01.162Z,21.5
2018-12-17T19:45:01.210Z,22.8
2018-12-17T19:50:02.327Z,23.2
2018-12-17T19:55:01.096Z,23.6
2018-12-17T20:00:01.113Z,25.1
2018-12-17T20:05:01.248Z,25.4
2018-12-17T20:10:01.119Z,24.3
2018-12-17T20:15:01.209Z,23.4
2018-12-17T20:20:01.141Z,22.1
2018-12-17T20:25:01.297Z,20.2
2018-12-17T20:30:01.140Z,20.3
2018-12-17T20:35:01.290Z,20.0
2018-12-17T20:40:01.340Z,20.6
2018-12-17T20:45:01.139Z,20.3
2018-12-17T20:50:01.190Z,21.7
2018-12-17T20:55:01.202Z,20.9
2018-12-17T21:00:01.148Z,21.2
2018-12-17T21:05:01.273Z,20.9
2018-12-17T21:10:01.518Z,21.8
2018-12-17T21:15:01.245Z,21.0
2018-12-17T21:20:01.156Z,21.3
2018-12-17T21:25:06.121Z,21.5
2018-12-17T21:30:01.859Z,20.7
2018-12-17T21:35:01.188Z,20.2
2018-12-17T21:40:01.122Z,20.0
2018-12-17T21:45:01.128Z,19.7
2018-12-17T21:50:01.131Z,19.2
2018-12-17T21:55:01.610Z,20.5
2018-12-17T22:00:02.589Z,20.4
2018-12-17T22:05:01.206Z,20.2
2018-12-17T22:10:01.464Z,20.2
2018-12-17T22:15:01.365Z,20.0
2018-12-17T22:25:01.213Z,19.3
2018-12-17T22:30:01.140Z,19.0
2018-12-17T22:35:01.141Z,18.9
2018-12-17T22:40:01.146Z,17.9
2018-12-17T22:45:01.138Z,16.8
2018-12-17T22:50:02.391Z,16.4
2018-12-17T22:55:01.272Z,16.0
2018-12-17T23:00:01.378Z,16.2
2018-12-17T23:05:01.206Z,17.0
2018-12-17T23:10:01.143Z,17.8
2018-12-17T23:30:01.194Z,15.6
2018-12-17T23:35:01.144Z,17.0
2018-12-17T23:40:01.086Z,17.3
2018-12-17T23:45:01.221Z,17.0
2018-12-17T23:50:01.089Z,16.9
2018-12-17T23:55:01.153Z,16.6
